Time;durP1;ratioP1;P1;durP2;ratioP2;P2;SDS_P1;SDS_P2;PMS_P1;PMS_P2;Temp;Humidity;BMP_temperature;BMP_pressure;BME280_temperature;BME280_humidity;BME280_pressure;Samples;Min_cycle;Max_cycle;Signal;HPM_P1;HPM_P2
2021/07/24 00:01:19;;;;;;;23.05;11.13;;;;;;;15.01;73.96;90503.97;4995614;28;20037;-86
2021/07/24 00:03:47;;;;;;;20.83;11.68;;;;;;;14.96;73.86;90486.69;4996496;28;20098;-86
2021/07/24 00:06:18;;;;;;;21.45;11.40;;;;;;;14.89;74.48;90489.28;5007563;28;20030;-86
2021/07/24 00:08:47;;;;;;;19.55;10.82;;;;;;;14.98;73.98;90489.72;4995822;28;20034;-86
2021/07/24 00:11:15;;;;;;;20.75;11.20;;;;;;;14.91;74.11;90484.44;4979139;28;20486;-86
2021/07/24 00:13:43;;;;;;;23.17;12.15;;;;;;;14.96;74.03;90475.47;4976148;28;20042;-87
2021/07/24 00:16:12;;;;;;;17.55;11.23;;;;;;;14.95;73.77;90473.97;4994445;28;20030;-87
2021/07/24 00:18:42;;;;;;;22.48;11.60;;;;;;;14.89;73.87;90465.66;4980508;28;20015;-86
2021/07/24 00:21:10;;;;;;;19.67;11.02;;;;;;;14.88;73.70;90455.56;4981285;28;20022;-87
2021/07/24 00:23:40;;;;;;;19.88;11.02;;;;;;;14.90;73.28;90450.69;4980806;28;20084;-87
2021/07/24 00:26:13;;;;;;;21.40;12.15;;;;;;;14.91;73.00;90452.16;4986053;28;20097;-86
2021/07/24 00:28:43;;;;;;;20.30;11.20;;;;;;;14.84;73.12;90442.41;4965793;28;20026;-87
2021/07/24 00:31:15;;;;;;;18.88;11.75;;;;;;;14.83;73.25;90446.13;4955393;28;20056;-84
2021/07/24 00:33:47;;;;;;;20.58;11.52;;;;;;;14.73;73.82;90441.56;4974240;28;20264;-86
2021/07/24 00:36:18;;;;;;;18.70;10.90;;;;;;;14.78;73.42;90441.22;5005303;28;20723;-86
2021/07/24 00:38:48;;;;;;;23.70;11.70;;;;;;;14.83;73.22;90433.00;4979265;28;20023;-86
2021/07/24 00:41:48;;;;;;;21.23;11.57;;;;;;;14.58;74.27;90433.59;4958600;28;20022;-86
2021/07/24 00:44:19;;;;;;;20.08;11.20;;;;;;;14.65;74.13;90430.28;4966674;28;20058;-86
2021/07/24 00:46:44;;;;;;;21.58;11.48;;;;;;;14.68;73.75;90423.56;4973722;28;20492;-86
2021/07/24 00:49:21;;;;;;;23.83;11.95;;;;;;;14.62;74.36;90425.75;4957496;28;20034;-86
2021/07/24 00:51:55;;;;;;;19.45;10.90;;;;;;;14.48;74.01;90410.63;4973975;28;20026;-86
2021/07/24 00:54:28;;;;;;;20.38;11.65;;;;;;;14.52;75.18;90429.81;4974092;28;20030;-86
2021/07/24 00:56:59;;;;;;;24.25;11.43;;;;;;;14.55;74.78;90417.84;4958793;28;20031;-86
2021/07/24 00:59:32;;;;;;;22.05;12.00;;;;;;;14.46;75.95;90420.00;4941821;28;20114;-86
2021/07/24 01:02:10;;;;;;;17.60;11.35;;;;;;;14.43;76.22;90420.72;4959211;28;20026;-86
2021/07/24 01:04:39;;;;;;;18.80;11.32;;;;;;;14.47;75.85;90417.00;4961532;28;20042;-86
2021/07/24 01:07:07;;;;;;;20.98;11.23;;;;;;;14.48;75.72;90423.75;5010336;28;20379;-85
2021/07/24 01:09:42;;;;;;;20.20;11.40;;;;;;;14.45;76.14;90421.09;4994083;28;20022;-87
2021/07/24 01:12:11;;;;;;;21.50;12.52;;;;;;;14.67;75.67;90438.53;5010128;28;20498;-86
2021/07/24 01:14:42;;;;;;;19.35;11.48;;;;;;;14.54;75.99;90435.44;4994370;28;20112;-87
2021/07/24 01:17:21;;;;;;;19.27;11.02;;;;;;;14.44;76.41;90435.31;4977830;28;20034;-87
2021/07/24 01:19:58;;;;;;;20.55;11.43;;;;;;;14.44;76.58;90445.81;5009866;28;20069;-86
2021/07/24 01:22:33;;;;;;;19.67;11.32;;;;;;;14.40;76.76;90460.75;5008442;28;20097;-87
2021/07/24 01:25:08;;;;;;;20.30;11.80;;;;;;;14.27;76.62;90462.88;4992278;28;20050;-86
2021/07/24 01:27:55;;;;;;;20.67;10.90;;;;;;;14.09;76.18;90462.72;4961292;28;20026;-86
2021/07/24 01:30:26;;;;;;;22.45;11.65;;;;;;;13.90;76.42;90466.28;4995226;28;20026;-87
2021/07/24 01:33:04;;;;;;;23.40;12.02;;;;;;;13.87;77.18;90462.50;4982034;28;20080;-86
2021/07/24 01:35:37;;;;;;;19.83;11.15;;;;;;;14.03;78.02;90469.41;4949532;28;20030;-85
2021/07/24 01:38:18;;;;;;;20.55;11.00;;;;;;;14.02;78.27;90473.13;4962214;28;20031;-85
2021/07/24 01:40:48;;;;;;;24.17;11.55;;;;;;;14.09;77.39;90475.81;4962401;28;20027;-85
2021/07/24 01:43:27;;;;;;;20.83;11.88;;;;;;;14.05;77.12;90481.03;4976078;28;20026;-86
2021/07/24 01:46:05;;;;;;;20.73;11.55;;;;;;;13.93;77.93;90472.66;4961421;28;20430;-86
2021/07/24 01:48:46;;;;;;;21.08;12.02;;;;;;;13.97;77.74;90478.69;4983184;28;20030;-86
2021/07/24 01:54:34;;;;;;;24.98;12.02;;;;;;;14.11;77.51;90479.59;4973029;28;20085;-85
2021/07/24 01:57:17;;;;;;;18.00;10.63;;;;;;;14.27;76.17;90479.34;4961529;28;20039;-86
2021/07/24 02:00:01;;;;;;;19.30;11.30;;;;;;;14.28;77.52;90483.50;4959643;28;20022;-86
2021/07/24 02:02:40;;;;;;;19.87;11.63;;;;;;;14.28;77.87;90486.13;5001789;28;20030;-87
2021/07/24 02:05:47;;;;;;;18.17;10.70;;;;;;;14.35;77.46;90491.44;5000255;28;20030;-86
2021/07/24 02:08:25;;;;;;;17.98;10.80;;;;;;;14.50;76.68;90486.34;4997198;28;20039;-86
2021/07/24 02:10:58;;;;;;;18.75;10.95;;;;;;;14.40;77.54;90472.00;4982981;28;20026;-86
2021/07/24 02:13:35;;;;;;;17.13;10.57;;;;;;;14.33;77.81;90471.94;4982870;28;20026;-86
2021/07/24 02:16:10;;;;;;;20.23;11.98;;;;;;;14.40;77.64;90473.88;4965953;28;20463;-87
2021/07/24 02:18:47;;;;;;;19.63;10.27;;;;;;;14.27;77.94;90458.38;4979217;28;20031;-87
2021/07/24 02:21:24;;;;;;;22.23;11.68;;;;;;;14.28;77.51;90456.56;4963957;28;20026;-87
2021/07/24 02:23:58;;;;;;;24.90;11.95;;;;;;;14.32;77.25;90452.84;4964578;28;20038;-87
2021/07/24 02:26:35;;;;;;;19.25;11.57;;;;;;;14.31;76.99;90453.19;4963791;28;20073;-87
2021/07/24 02:29:11;;;;;;;21.33;10.70;;;;;;;14.41;76.18;90462.25;4979862;28;20046;-86
2021/07/24 02:31:42;;;;;;;21.27;10.75;;;;;;;14.45;75.82;90452.56;4961730;28;20038;-87
2021/07/24 02:34:18;;;;;;;17.95;10.68;;;;;;;14.47;75.54;90451.09;4983280;28;20026;-87
2021/07/24 02:37:00;;;;;;;23.27;10.80;;;;;;;14.51;75.67;90451.13;4983502;28;20402;-87
2021/07/24 02:39:35;;;;;;;19.17;10.63;;;;;;;14.55;75.84;90457.16;4984060;28;20030;-88
2021/07/24 02:42:16;;;;;;;17.35;10.88;;;;;;;14.62;75.23;90451.97;5015069;28;20034;-88
2021/07/24 02:44:47;;;;;;;19.70;10.82;;;;;;;14.53;75.37;90452.28;5007139;28;20030;-87
2021/07/24 02:47:24;;;;;;;19.58;10.88;;;;;;;14.62;75.09;90451.97;4949773;28;20054;-87
2021/07/24 02:49:59;;;;;;;20.83;11.27;;;;;;;14.44;75.74;90436.06;4996540;28;20082;-87
2021/07/24 02:52:34;;;;;;;17.25;10.93;;;;;;;14.38;75.89;90434.91;4976190;28;20499;-86
2021/07/24 02:55:16;;;;;;;17.08;10.10;;;;;;;14.47;76.72;90443.22;4978037;28;20035;-86
2021/07/24 02:57:51;;;;;;;16.60;10.95;;;;;;;14.37;77.64;90443.13;4961244;28;20117;-86
2021/07/24 03:00:24;;;;;;;18.38;11.20;;;;;;;14.45;77.11;90449.94;4961770;28;20026;-87
2021/07/24 03:03:03;;;;;;;20.23;11.20;;;;;;;14.38;77.65;90448.03;4964434;28;20026;-87
2021/07/24 03:05:40;;;;;;;19.35;11.10;;;;;;;14.42;77.49;90450.69;4963610;28;20136;-85
2021/07/24 03:08:17;;;;;;;17.58;11.27;;;;;;;14.30;77.59;90457.69;4967095;28;20037;-86
2021/07/24 03:10:48;;;;;;;17.58;10.48;;;;;;;14.40;77.35;90460.75;4944669;28;20030;-86
2021/07/24 03:13:30;;;;;;;20.40;12.02;;;;;;;14.32;77.52;90450.22;4967275;28;20045;-86
2021/07/24 03:16:01;;;;;;;21.08;11.23;;;;;;;14.37;77.95;90462.22;4980520;28;20030;-87
2021/07/24 03:18:36;;;;;;;18.77;11.10;;;;;;;14.42;77.24;90448.81;4979781;28;20032;-86
2021/07/24 03:21:10;;;;;;;17.23;10.90;;;;;;;14.44;76.88;90445.81;4979838;28;20030;-86
2021/07/24 03:23:40;;;;;;;;;;;;;;;14.44;76.99;90461.53;4980774;28;20109;-86
2021/07/24 03:26:20;;;;;;;21.45;10.10;;;;;;;14.39;77.21;90460.00;5014472;23;19922;-87
2021/07/24 03:28:56;;;;;;;17.45;10.52;;;;;;;14.32;77.46;90465.94;5012671;28;20025;-86
2021/07/24 03:31:35;;;;;;;20.50;11.60;;;;;;;14.32;77.17;90468.56;4979141;28;20049;-87
2021/07/24 03:34:18;;;;;;;20.63;10.95;;;;;;;14.39;77.17;90464.50;5011827;28;20026;-87
2021/07/24 03:36:58;;;;;;;18.73;10.67;;;;;;;14.40;77.03;90474.63;4993342;28;20383;-87
2021/07/24 03:39:36;;;;;;;19.23;10.45;;;;;;;14.47;76.82;90484.41;4976022;28;20026;-86
2021/07/24 03:42:12;;;;;;;17.92;10.13;;;;;;;14.41;76.85;90470.88;4976512;28;20446;-87
2021/07/24 03:44:48;;;;;;;20.75;10.18;;;;;;;14.54;75.70;90466.16;4976014;28;20627;-87
2021/07/24 03:47:28;;;;;;;17.00;10.07;;;;;;;14.49;75.92;90463.84;4976441;28;20034;-87
2021/07/24 03:50:04;;;;;;;17.30;9.98;;;;;;;14.53;76.08;90459.41;4972726;28;20480;-87
2021/07/24 03:52:41;;;;;;;15.98;10.05;;;;;;;14.60;76.12;90462.09;4987004;28;20027;-87
2021/07/24 03:55:15;;;;;;;19.00;10.60;;;;;;;14.71;76.19;90464.78;4986175;28;20049;-88
2021/07/24 03:57:55;;;;;;;21.08;10.52;;;;;;;14.70;75.60;90464.03;4956150;28;20442;-87
2021/07/24 04:00:43;;;;;;;23.33;11.57;;;;;;;14.66;75.94;90467.72;4972003;28;20023;-87
2021/07/24 04:03:18;;;;;;;19.45;10.95;;;;;;;14.70;76.65;90474.53;4958136;28;20027;-87
2021/07/24 04:05:52;;;;;;;20.83;10.68;;;;;;;14.74;76.04;90475.31;4972070;28;20026;-86
2021/07/24 04:08:32;;;;;;;20.75;11.02;;;;;;;14.62;77.90;90470.31;4966435;28;20030;-87
2021/07/24 04:11:11;;;;;;;15.27;10.10;;;;;;;14.62;77.67;90461.72;4991430;28;20065;-86
2021/07/24 04:13:51;;;;;;;17.98;10.23;;;;;;;14.69;77.48;90464.38;4971741;28;20039;-87
2021/07/24 04:16:27;;;;;;;20.00;11.55;;;;;;;14.69;77.49;90461.75;4986793;28;20042;-87
2021/07/24 04:19:06;;;;;;;21.88;10.88;;;;;;;14.69;77.64;90462.50;4971713;28;20034;-88
2021/07/24 04:21:41;;;;;;;18.88;10.75;;;;;;;14.83;77.85;90472.38;4972066;28;20113;-87
2021/07/24 04:24:18;;;;;;;18.35;11.15;;;;;;;14.73;78.31;90468.53;4971862;28;20027;-89
2021/07/24 04:26:57;;;;;;;21.08;10.88;;;;;;;14.77;78.38;90464.09;4957519;28;20487;-87
2021/07/24 04:29:30;;;;;;;19.98;11.50;;;;;;;14.93;78.84;90469.06;4991005;28;20509;-87
2021/07/24 04:32:04;;;;;;;18.50;11.07;;;;;;;14.79;79.79;90467.09;4990933;28;20030;-87
2021/07/24 04:34:44;;;;;;;19.77;11.73;;;;;;;14.95;78.53;90453.72;4970933;28;20375;-86
2021/07/24 04:37:21;;;;;;;20.30;11.80;;;;;;;14.93;80.11;90452.56;4990963;28;20046;-87
2021/07/24 04:40:01;;;;;;;22.38;12.70;;;;;;;15.44;77.93;90442.00;4975427;28;20473;-87
2021/07/24 04:42:38;;;;;;;20.90;12.70;;;;;;;15.54;78.67;90435.25;4975948;28;20105;-87
2021/07/24 04:45:21;;;;;;;21.30;12.73;;;;;;;15.45;79.83;90425.13;4992067;28;20030;-87
2021/07/24 04:47:58;;;;;;;18.27;11.50;;;;;;;15.41;78.14;90447.97;4982479;28;20022;-87
2021/07/24 04:50:36;;;;;;;19.85;11.23;;;;;;;15.27;79.15;90446.03;4972292;28;20395;-87
2021/07/24 04:53:03;;;;;;;17.45;11.30;;;;;;;15.34;79.03;90466.31;4956238;28;20054;-87
2021/07/24 04:55:42;;;;;;;16.98;11.05;;;;;;;15.27;80.73;90472.28;4955200;28;20037;-87
2021/07/24 04:58:19;;;;;;;21.45;11.82;;;;;;;15.23;79.97;90478.59;4956397;28;20051;-87
2021/07/24 05:00:53;;;;;;;20.25;12.10;;;;;;;15.38;80.83;90479.47;4955675;28;20050;-87
2021/07/24 05:03:29;;;;;;;27.25;12.48;;;;;;;15.19;81.56;90478.59;4972650;28;20030;-87
2021/07/24 05:06:03;;;;;;;17.65;11.55;;;;;;;15.00;81.70;90495.34;4990704;28;20180;-87
2021/07/24 05:08:37;;;;;;;18.20;11.82;;;;;;;15.04;81.95;90508.50;4974685;28;20031;-87
2021/07/24 05:11:12;;;;;;;22.10;12.77;;;;;;;15.02;83.01;90521.25;4975135;28;20042;-87
2021/07/24 05:13:48;;;;;;;18.80;11.65;;;;;;;15.03;82.65;90527.97;4989391;28;20023;-89
2021/07/24 05:16:29;;;;;;;21.65;13.05;;;;;;;15.27;81.84;90543.16;4994332;28;20038;-87
2021/07/24 05:19:06;;;;;;;23.90;13.85;;;;;;;15.27;81.52;90563.41;4979011;28;20108;-87
2021/07/24 05:21:42;;;;;;;22.83;13.00;;;;;;;15.36;82.16;90576.19;4977133;28;20026;-88
2021/07/24 05:24:17;;;;;;;23.70;12.93;;;;;;;15.45;82.13;90587.91;4994626;28;20077;-87
2021/07/24 05:26:53;;;;;;;22.17;13.15;;;;;;;16.10;75.66;90585.66;4990651;28;20611;-87
2021/07/24 05:29:30;;;;;;;23.58;12.20;;;;;;;16.85;71.80;90575.38;4977460;28;20041;-87
2021/07/24 05:32:13;;;;;;;20.75;11.75;;;;;;;16.88;72.38;90582.53;4994097;28;20050;-87
2021/07/24 05:34:46;;;;;;;22.60;12.07;;;;;;;16.88;73.22;90579.91;4979476;28;20109;-87
2021/07/24 05:37:20;;;;;;;20.02;11.57;;;;;;;17.05;72.38;90579.16;4994048;28;20022;-87
2021/07/24 05:39:52;;;;;;;;;;;;;;;17.04;71.78;90572.41;4993723;28;20026;-87
2021/07/24 05:42:24;;;;;;;18.23;10.55;;;;;;;17.02;70.27;90574.66;4978008;28;20390;-88
2021/07/24 05:45:03;;;;;;;16.23;9.43;;;;;;;17.17;67.08;90570.13;4988024;28;20069;-87
2021/07/24 05:47:42;;;;;;;17.95;10.15;;;;;;;17.24;67.21;90579.91;4962479;28;20034;-88
2021/07/24 05:50:17;;;;;;;18.60;9.65;;;;;;;17.28;66.31;90580.66;4993530;28;20523;-87
2021/07/24 05:53:01;;;;;;;14.52;8.95;;;;;;;17.26;66.73;90578.41;4978521;28;20030;-88
2021/07/24 05:55:38;;;;;;;15.60;8.48;;;;;;;17.42;63.77;90589.34;4977648;28;20026;-87
2021/07/24 05:58:18;;;;;;;15.50;8.23;;;;;;;17.40;64.12;90577.66;4987203;28;20380;-87
2021/07/24 06:00:57;;;;;;;13.02;8.35;;;;;;;17.37;63.48;90560.72;4942869;28;20031;-87
2021/07/24 06:03:39;;;;;;;12.57;7.57;;;;;;;17.41;62.18;90553.56;4975288;28;20109;-87
2021/07/24 06:06:13;;;;;;;12.95;7.88;;;;;;;17.39;64.08;90566.38;4974220;28;20027;-87
2021/07/24 06:08:45;;;;;;;;;;;;;;;17.49;62.17;90567.50;4958859;28;20162;-87
2021/07/24 06:11:17;;;;;;;12.38;7.28;;;;;;;17.38;62.03;90564.09;4957847;28;19998;-87
2021/07/24 06:13:58;;;;;;;14.25;6.93;;;;;;;17.41;62.28;90568.63;4961447;28;20027;-87
2021/07/24 06:16:34;;;;;;;12.05;6.95;;;;;;;17.39;63.22;90565.63;4962194;28;20026;-86
2021/07/24 06:19:16;;;;;;;12.27;6.65;;;;;;;17.41;62.81;90563.34;4993507;28;20022;-88
2021/07/24 06:21:52;;;;;;;12.07;6.75;;;;;;;17.37;64.57;90562.63;4992983;28;20490;-89
2021/07/24 06:24:30;;;;;;;11.95;6.78;;;;;;;17.35;64.28;90572.75;4993522;28;20050;-89
2021/07/24 06:27:07;;;;;;;12.07;6.85;;;;;;;17.16;66.81;90569.38;4962234;28;20030;-89
2021/07/24 06:29:36;;;;;;;13.15;6.65;;;;;;;17.20;65.57;90574.66;4977968;28;20031;-87
2021/07/24 06:32:07;;;;;;;10.93;7.03;;;;;;;17.06;66.63;90556.97;4974349;28;20034;-87
2021/07/24 06:34:35;;;;;;;11.30;6.45;;;;;;;17.04;67.79;90553.97;4974293;28;20711;-87
2021/07/24 06:37:15;;;;;;;15.30;7.25;;;;;;;16.98;69.71;90560.72;4961860;28;20037;-88
2021/07/24 06:39:53;;;;;;;14.98;6.90;;;;;;;16.80;69.78;90554.69;4958319;28;20027;-88
2021/07/24 06:42:30;;;;;;;10.60;6.60;;;;;;;16.72;71.15;90561.81;4942747;28;20034;-89
2021/07/24 06:45:07;;;;;;;11.43;6.40;;;;;;;16.76;68.35;90525.75;4964330;28;20026;-89
2021/07/24 06:47:46;;;;;;;10.95;6.45;;;;;;;16.72;68.97;90499.41;4990404;28;20026;-88
2021/07/24 06:50:24;;;;;;;11.27;6.15;;;;;;;16.76;69.56;90419.75;4973318;28;20027;-88
2021/07/24 06:53:01;;;;;;;11.32;6.45;;;;;;;16.63;69.73;90420.09;4972940;28;20056;-88
2021/07/24 06:55:33;;;;;;;12.07;6.60;;;;;;;16.52;73.24;90439.66;4992622;28;20031;-88
2021/07/24 06:58:10;;;;;;;11.02;6.28;;;;;;;16.48;73.63;90490.38;4987526;28;20058;-88
2021/07/24 07:00:43;;;;;;;14.98;6.47;;;;;;;16.51;73.77;90501.28;4976008;28;20053;-89
2021/07/24 07:03:16;;;;;;;11.98;6.20;;;;;;;16.58;72.10;90499.41;4987675;28;20034;-88
2021/07/24 07:05:50;;;;;;;16.20;5.95;;;;;;;16.60;69.83;90497.13;4992292;28;20038;-89
2021/07/24 07:08:21;;;;;;;;;;;;;;;16.65;69.17;90507.31;4976993;28;20037;-89
2021/07/24 07:10:54;;;;;;;13.75;5.90;;;;;;;16.83;66.46;90509.22;4992632;28;19913;-87
2021/07/24 07:13:28;;;;;;;10.35;5.50;;;;;;;16.86;65.41;90511.13;4960609;28;20030;-88
2021/07/24 07:16:10;;;;;;;11.75;5.38;;;;;;;16.67;67.55;90512.94;4992464;28;20638;-88
2021/07/24 07:18:42;;;;;;;10.57;5.18;;;;;;;16.64;67.16;90523.44;4977708;28;20034;-88
2021/07/24 07:21:14;;;;;;;10.95;5.25;;;;;;;16.69;65.02;90510.69;4992425;28;20026;-88
2021/07/24 07:23:52;;;;;;;12.32;5.50;;;;;;;16.51;65.07;90506.53;4990437;28;20035;-87
2021/07/24 07:26:27;;;;;;;12.20;5.40;;;;;;;16.17;71.14;90504.94;4969911;28;20026;-88
2021/07/24 07:29:08;;;;;;;11.23;6.13;;;;;;;15.92;72.62;90525.13;4975252;28;20440;-89
2021/07/24 07:31:39;;;;;;;10.43;6.05;;;;;;;15.69;75.16;90525.44;4974100;28;20022;-88
2021/07/24 07:34:13;;;;;;;10.38;6.07;;;;;;;15.74;75.27;90520.56;4941925;28;20483;-88
2021/07/24 07:36:54;;;;;;;13.27;6.35;;;;;;;15.61;73.90;90498.31;4973624;28;20038;-88
2021/07/24 07:39:26;;;;;;;10.32;5.90;;;;;;;15.59;74.78;90489.31;4956978;28;20101;-88
2021/07/24 07:41:57;;;;;;;11.43;6.13;;;;;;;15.67;73.91;90491.63;4961457;28;20057;-88
2021/07/24 07:44:25;;;;;;;14.70;6.05;;;;;;;15.71;73.05;90489.78;4960108;28;20054;-89
2021/07/24 07:47:06;;;;;;;12.02;5.63;;;;;;;15.83;73.40;90493.97;4974745;28;20077;-88
2021/07/24 07:49:31;;;;;;;9.73;5.45;;;;;;;15.93;73.00;90481.97;4973271;28;20031;-89
2021/07/24 07:52:11;;;;;;;11.50;5.43;;;;;;;15.90;74.00;90474.81;4978990;28;20084;-88
2021/07/24 07:54:40;;;;;;;16.48;6.00;;;;;;;15.90;74.37;90478.22;4979179;28;20027;-88
2021/07/24 07:57:09;;;;;;;9.30;5.15;;;;;;;15.93;74.07;90492.47;4968067;28;20483;-87
2021/07/24 07:59:39;;;;;;;11.82;5.25;;;;;;;15.92;72.68;90475.22;4982826;28;20033;-88
2021/07/24 08:02:07;;;;;;;9.50;5.13;;;;;;;16.02;71.60;90453.47;4986809;28;20402;-88
2021/07/24 08:04:36;;;;;;;8.98;4.80;;;;;;;16.18;71.81;90443.38;4962901;28;20076;-88
2021/07/24 08:07:02;;;;;;;8.98;4.95;;;;;;;16.31;72.69;90427.25;4990514;28;20092;-88
2021/07/24 08:09:38;;;;;;;9.85;5.20;;;;;;;16.43;72.12;90414.47;4991367;28;20034;-87
2021/07/24 08:12:11;;;;;;;9.35;4.97;;;;;;;16.45;73.38;90401.69;4971897;28;20023;-88
2021/07/24 08:14:44;;;;;;;12.53;5.83;;;;;;;16.51;71.09;90402.09;4974210;28;20376;-90
2021/07/24 08:17:19;;;;;;;9.68;5.18;;;;;;;16.55;71.14;90405.47;4959221;28;20490;-88
2021/07/24 08:19:45;;;;;;;;;;;;;;;16.61;71.92;90403.97;4972166;28;20119;-89
2021/07/24 08:22:20;;;;;;;10.35;5.05;;;;;;;16.57;73.06;90408.47;4989992;28;20394;-88
2021/07/24 08:24:51;;;;;;;10.75;5.97;;;;;;;16.43;72.42;90403.19;4972358;28;20035;-88
2021/07/24 08:27:25;;;;;;;14.55;6.28;;;;;;;16.67;74.10;90406.94;5007360;28;20402;-89
2021/07/24 08:29:53;;;;;;;;;;;;;;;16.81;72.47;90401.69;4975738;28;20022;-89
2021/07/24 08:32:22;;;;;;;10.45;5.95;;;;;;;16.93;70.71;90395.31;4990418;28;20293;-89
2021/07/24 08:34:50;;;;;;;11.20;6.35;;;;;;;17.08;69.34;90388.13;4975026;28;20023;-89
2021/07/24 08:37:20;;;;;;;10.52;6.50;;;;;;;17.29;70.91;90393.34;4955122;28;20031;-89
2021/07/24 08:39:51;;;;;;;12.93;6.45;;;;;;;17.47;69.44;90393.28;4962641;28;20026;-87
2021/07/24 08:42:29;;;;;;;15.02;6.20;;;;;;;17.58;68.49;90388.72;4975169;28;20030;-89
2021/07/24 08:44:59;;;;;;;9.52;5.90;;;;;;;17.90;67.48;90403.66;4990713;28;20026;-88
2021/07/24 08:47:24;;;;;;;11.38;5.85;;;;;;;18.14;66.34;90418.59;4958578;28;20050;-88
2021/07/24 08:49:54;;;;;;;12.85;6.72;;;;;;;18.27;66.96;90429.44;4974247;28;20062;-89
2021/07/24 08:52:20;;;;;;;12.15;5.50;;;;;;;18.39;65.38;90444.06;4966301;28;20029;-88
2021/07/24 08:54:49;;;;;;;11.95;6.28;;;;;;;18.48;64.61;90449.66;4977700;28;20112;-88
2021/07/24 08:57:19;;;;;;;11.25;6.43;;;;;;;18.42;64.86;90447.81;4993970;28;20024;-88
2021/07/24 08:59:48;;;;;;;11.70;5.90;;;;;;;18.37;63.16;90438.41;4994007;28;20443;-88
2021/07/24 09:02:16;;;;;;;12.45;6.65;;;;;;;18.31;63.45;90447.88;4977791;28;20038;-88
2021/07/24 09:04:44;;;;;;;10.68;5.93;;;;;;;18.43;64.58;90455.34;4977678;28;20401;-89
2021/07/24 09:07:17;;;;;;;14.65;6.38;;;;;;;18.40;65.33;90467.41;4993852;28;20022;-89
2021/07/24 09:09:50;;;;;;;11.88;6.47;;;;;;;18.38;64.63;90467.06;4956912;28;20034;-88
2021/07/24 09:12:18;;;;;;;14.23;6.68;;;;;;;18.40;63.39;90479.84;4970960;28;20027;-89
2021/07/24 09:14:57;;;;;;;10.57;6.38;;;;;;;18.30;63.74;90489.34;4970890;28;20049;-89
2021/07/24 09:17:30;;;;;;;10.55;6.28;;;;;;;18.20;65.72;90486.72;4971354;28;20510;-90
2021/07/24 09:19:59;;;;;;;10.77;6.20;;;;;;;18.21;62.73;90475.06;4983151;28;20026;-88
2021/07/24 09:22:45;;;;;;;13.30;6.35;;;;;;;18.20;63.42;90474.31;4974005;28;20037;-88
2021/07/24 09:25:31;;;;;;;11.68;5.78;;;;;;;18.20;62.97;90487.50;4974040;28;20030;-88
2021/07/24 09:28:17;;;;;;;10.80;6.40;;;;;;;18.29;64.17;90494.97;4973339;23;20055;-87
2021/07/24 09:30:47;;;;;;;9.05;6.03;;;;;;;18.33;62.05;90498.34;4971044;28;20030;-89
2021/07/24 09:33:21;;;;;;;12.88;6.18;;;;;;;18.29;62.26;90502.88;4972439;28;20458;-87
2021/07/24 09:35:46;;;;;;;;;;;;;;;18.23;63.08;90493.88;4971720;28;20546;-86
2021/07/24 09:38:31;;;;;;;10.48;5.35;;;;;;;18.23;59.84;90489.34;4972464;28;20013;-87
2021/07/24 09:41:03;;;;;;;13.60;6.60;;;;;;;17.99;63.93;90496.25;4971183;28;20027;-87
2021/07/24 09:43:46;;;;;;;15.63;7.03;;;;;;;17.88;65.51;90493.66;4971365;28;20027;-87
2021/07/24 09:46:29;;;;;;;14.10;6.45;;;;;;;18.10;63.78;90488.31;4940279;28;20027;-86
2021/07/24 09:48:55;;;;;;;12.68;6.80;;;;;;;18.06;65.86;90504.13;4954951;28;20018;-86
2021/07/24 09:51:36;;;;;;;12.50;6.80;;;;;;;17.89;65.43;90497.78;4957722;28;20030;-88
2021/07/24 09:54:03;;;;;;;14.98;6.78;;;;;;;17.64;68.06;90492.56;4953810;28;20034;-86
2021/07/24 09:56:44;;;;;;;15.25;8.30;;;;;;;17.31;72.06;90487.75;4953537;28;20050;-86
2021/07/24 09:59:33;;;;;;;15.85;8.13;;;;;;;17.50;72.33;90476.81;4959398;28;20038;-85
2021/07/24 10:02:09;;;;;;;13.98;8.20;;;;;;;17.53;74.08;90470.78;4974654;28;20117;-87
2021/07/24 10:04:51;;;;;;;15.93;8.30;;;;;;;17.72;71.88;90471.47;4959080;28;20029;-86
2021/07/24 10:07:18;;;;;;;14.38;8.93;;;;;;;17.69;73.58;90497.44;4950471;28;20096;-86
2021/07/24 10:09:44;;;;;;;13.65;8.82;;;;;;;17.82;72.87;90507.63;4943004;28;20061;-85
2021/07/24 10:12:13;;;;;;;16.00;8.27;;;;;;;17.90;71.16;90519.63;4957774;28;20126;-85
2021/07/24 10:14:39;;;;;;;16.90;9.02;;;;;;;17.81;71.30;90532.44;4975877;28;20030;-86
2021/07/24 10:17:11;;;;;;;15.35;8.98;;;;;;;18.14;74.22;90500.31;4957521;28;20030;-86
2021/07/24 10:19:41;;;;;;;17.25;9.35;;;;;;;18.37;73.39;90499.06;4959122;28;20039;-86
2021/07/24 10:22:08;;;;;;;12.48;8.43;;;;;;;18.41;72.43;90489.28;4970219;28;20027;-86
2021/07/24 10:24:36;;;;;;;19.80;8.85;;;;;;;18.59;71.75;90505.00;4952880;28;20407;-87
2021/07/24 10:27:10;;;;;;;17.83;8.70;;;;;;;19.08;70.68;90503.94;4964252;28;20022;-86
2021/07/24 10:29:44;;;;;;;17.15;7.97;;;;;;;19.29;69.67;90505.63;4969471;28;20035;-86
2021/07/24 10:32:42;;;;;;;13.57;8.53;;;;;;;19.52;73.52;90505.03;4982647;28;20036;-86
2021/07/24 10:35:08;;;;;;;12.82;7.60;;;;;;;19.80;66.27;90488.16;4966907;28;20272;-87
2021/07/24 10:37:51;;;;;;;10.90;6.93;;;;;;;20.00;64.72;90477.75;4974410;28;20023;-86
2021/07/24 10:40:17;;;;;;;10.40;6.38;;;;;;;20.14;64.81;90474.19;4976181;28;20105;-88
2021/07/24 10:43:02;;;;;;;14.13;6.47;;;;;;;20.13;59.75;90471.94;4975605;28;20459;-88
2021/07/24 10:45:37;;;;;;;12.00;6.22;;;;;;;20.28;58.33;90478.53;4974667;28;20072;-88
2021/07/24 10:48:24;;;;;;;9.57;6.00;;;;;;;20.30;60.21;90463.03;4974568;28;20027;-88
2021/07/24 10:51:06;;;;;;;13.43;6.53;;;;;;;20.35;59.63;90462.56;4943751;28;20027;-90
2021/07/24 10:54:22;;;;;;;11.20;6.68;;;;;;;20.55;57.76;90464.59;5030413;23;20018;-93
2021/07/24 10:57:05;;;;;;;15.20;6.43;;;;;;;20.37;60.59;90457.63;4930450;29;20033;-88
2021/07/24 10:59:31;;;;;;;14.90;6.97;;;;;;;20.78;58.33;90462.00;4925233;29;20488;-87
2021/07/24 11:02:08;;;;;;;14.70;6.90;;;;;;;20.95;59.34;90460.22;4954443;28;20074;-86
2021/07/24 11:04:43;;;;;;;13.75;6.97;;;;;;;20.92;58.82;90464.44;4953707;28;20041;-86
2021/07/24 11:07:40;;;;;;;11.85;7.22;;;;;;;20.86;62.24;90474.00;4982674;28;20027;-84
2021/07/24 11:10:11;;;;;;;14.52;6.97;;;;;;;20.73;60.02;90460.53;4983760;28;20031;-88
2021/07/24 11:12:46;;;;;;;8.85;6.22;;;;;;;20.64;59.66;90449.72;4962842;28;20027;-86
2021/07/24 11:15:21;;;;;;;12.88;7.50;;;;;;;20.58;58.27;90445.28;4968286;28;20486;-85
2021/07/24 11:18:23;;;;;;;9.20;6.32;;;;;;;20.44;59.08;90433.72;4965877;28;20015;-86
2021/07/24 11:21:04;;;;;;;11.65;6.35;;;;;;;20.61;56.45;90405.53;4965843;28;20018;-86
2021/07/24 11:24:01;;;;;;;12.40;6.72;;;;;;;20.29;55.38;90406.72;4952377;28;20022;-87
2021/07/24 11:26:26;;;;;;;10.10;6.00;;;;;;;20.49;58.20;90428.00;4965238;28;20023;-88
2021/07/24 11:28:56;;;;;;;11.98;6.40;;;;;;;20.68;55.52;90410.72;4930641;28;20038;-86
2021/07/24 11:31:28;;;;;;;11.02;6.15;;;;;;;20.56;59.49;90423.75;4961592;28;20027;-86
2021/07/24 11:34:06;;;;;;;11.95;6.30;;;;;;;20.58;59.25;90437.34;4932654;28;20031;-86
2021/07/24 11:36:34;;;;;;;10.82;6.20;;;;;;;20.63;57.83;90439.53;4949742;28;20050;-87
2021/07/24 11:39:16;;;;;;;11.35;6.47;;;;;;;20.94;59.06;90446.22;4961539;28;20071;-86
2021/07/24 11:41:43;;;;;;;13.57;6.68;;;;;;;21.23;58.65;90449.16;4963116;29;20039;-87
2021/07/24 11:44:09;;;;;;;9.77;6.20;;;;;;;21.33;60.00;90446.75;4964342;28;20062;-86
2021/07/24 11:46:38;;;;;;;11.65;6.47;;;;;;;21.69;58.40;90441.56;4948858;28;20030;-86
2021/07/24 11:49:11;;;;;;;10.95;6.57;;;;;;;21.83;58.28;90436.00;4966694;28;20037;-88
2021/07/24 11:51:39;;;;;;;10.82;5.70;;;;;;;22.13;56.78;90443.00;4983658;28;20026;-88
2021/07/24 11:54:05;;;;;;;10.50;6.00;;;;;;;22.11;57.93;90444.56;4981331;28;20031;-87
2021/07/24 11:56:31;;;;;;;11.15;6.82;;;;;;;22.31;56.21;90437.34;4963955;28;20058;-86
2021/07/24 11:58:58;;;;;;;12.40;6.85;;;;;;;22.18;57.78;90423.22;4985043;28;20015;-88
2021/07/24 12:01:25;;;;;;;11.45;6.25;;;;;;;21.94;55.51;90415.34;4967517;28;20077;-87
2021/07/24 12:04:22;;;;;;;13.40;6.65;;;;;;;21.93;56.87;90419.13;4954208;28;20042;-86